Time;durP1;ratioP1;P1;durP2;ratioP2;P2;SDS_P1;SDS_P2;PMS_P1;PMS_P2;Temp;Humidity;BMP_temperature;BMP_pressure;BME280_temperature;BME280_humidity;BME280_pressure;Samples;Min_cycle;Max_cycle;Signal;HPM_P1;HPM_P2
2022/03/29 00:00:58;;;;;;;9.23;7.67;;;;;21.10;100496.00;;;;2078248;28;20225;-48
2022/03/29 00:01:59;;;;;;;7.83;7.00;;;;;21.10;100500.00;;;;2078709;28;20380;-47
2022/03/29 00:03:00;;;;;;;8.20;6.90;;;;;21.10;100490.00;;;;2078276;28;20522;-47
2022/03/29 00:04:00;;;;;;;8.63;7.73;;;;;21.10;100495.00;;;;2074771;28;20218;-48
2022/03/29 00:05:04;;;;;;;9.33;7.73;;;;;21.10;100493.00;;;;2070421;28;20230;-48
2022/03/29 00:06:04;;;;;;;8.57;7.68;;;;;21.10;100498.00;;;;2070013;28;20879;-48
2022/03/29 00:07:05;;;;;;;9.00;8.03;;;;;21.10;100498.00;;;;2077752;28;20259;-48
2022/03/29 00:08:05;;;;;;;8.63;7.10;;;;;21.10;100492.00;;;;2070906;28;20210;-48
2022/03/29 00:09:05;;;;;;;13.77;7.70;;;;;21.10;100489.00;;;;2070435;28;20214;-55
2022/03/29 00:10:06;;;;;;;12.50;8.13;;;;;21.10;100495.00;;;;2070392;28;20219;-59
2022/03/29 00:11:07;;;;;;;12.30;7.43;;;;;21.10;100488.00;;;;2070502;28;20214;-58
2022/03/29 00:12:07;;;;;;;11.33;7.97;;;;;20.90;100486.00;;;;2069419;28;20751;-58
2022/03/29 00:13:07;;;;;;;11.93;8.40;;;;;21.10;100492.00;;;;2069865;28;20214;-57
2022/03/29 00:14:08;;;;;;;9.83;8.23;;;;;21.10;100484.00;;;;2069812;28;20301;-59
2022/03/29 00:15:09;;;;;;;11.23;8.93;;;;;21.00;100483.00;;;;2068058;28;21287;-59
2022/03/29 00:16:10;;;;;;;10.07;8.67;;;;;21.00;100481.00;;;;2060558;28;20222;-59
2022/03/29 00:17:10;;;;;;;9.10;8.27;;;;;21.00;100480.00;;;;2060516;28;20806;-59
2022/03/29 00:18:10;;;;;;;14.07;8.40;;;;;21.00;100481.00;;;;2075705;28;20217;-59
2022/03/29 00:19:11;;;;;;;11.23;9.93;;;;;21.00;100505.00;;;;2078015;28;20281;-59
2022/03/29 00:20:11;;;;;;;9.37;8.07;;;;;21.00;100483.00;;;;2074422;28;20666;-59
2022/03/29 00:21:12;;;;;;;10.27;9.27;;;;;21.00;100483.00;;;;2078628;28;20479;-59
2022/03/29 00:22:13;;;;;;;12.00;8.67;;;;;21.00;100476.00;;;;2077469;28;20228;-58
2022/03/29 00:23:13;;;;;;;9.00;8.13;;;;;21.00;100479.00;;;;2069835;28;20287;-59
2022/03/29 00:24:13;;;;;;;10.27;9.23;;;;;21.00;100478.00;;;;2074121;28;20453;-60
2022/03/29 00:25:14;;;;;;;10.70;8.43;;;;;21.00;100470.00;;;;2070470;28;20225;-58
2022/03/29 00:26:16;;;;;;;13.00;9.10;;;;;21.00;100470.00;;;;2068885;28;20210;-59
2022/03/29 00:27:16;;;;;;;10.70;9.10;;;;;21.00;100471.00;;;;2067796;28;20799;-58
2022/03/29 00:28:16;;;;;;;11.27;9.17;;;;;21.00;100479.00;;;;2069737;28;20264;-60
2022/03/29 00:29:17;;;;;;;10.00;8.47;;;;;21.00;100476.00;;;;2079027;28;20213;-59
2022/03/29 00:30:17;;;;;;;10.47;9.07;;;;;21.10;100476.00;;;;2080198;28;20229;-59
2022/03/29 00:31:19;;;;;;;10.43;9.00;;;;;21.00;100474.00;;;;2080294;28;20217;-59
2022/03/29 00:32:19;;;;;;;10.25;9.05;;;;;21.00;100474.00;;;;2071376;28;20229;-59
2022/03/29 00:33:20;;;;;;;11.90;9.70;;;;;21.00;100464.00;;;;2070773;28;20214;-59
2022/03/29 00:34:20;;;;;;;11.47;8.50;;;;;21.00;100472.00;;;;2077526;28;20565;-59
2022/03/29 00:35:21;;;;;;;10.37;9.27;;;;;21.00;100470.00;;;;2073585;28;20217;-58
2022/03/29 00:36:21;;;;;;;10.30;8.93;;;;;21.00;100467.00;;;;2062821;28;20227;-58
2022/03/29 00:37:21;;;;;;;10.77;9.40;;;;;21.00;100462.00;;;;2063204;28;20222;-59
2022/03/29 00:38:22;;;;;;;10.07;8.70;;;;;21.00;100467.00;;;;2071090;28;20334;-58
2022/03/29 00:39:22;;;;;;;10.73;9.43;;;;;21.00;100461.00;;;;2070797;28;20224;-58
2022/03/29 00:40:22;;;;;;;9.90;8.03;;;;;21.00;100464.00;;;;2079151;28;20709;-59
2022/03/29 00:41:23;;;;;;;11.03;9.87;;;;;21.00;100465.00;;;;2079044;28;20789;-64
2022/03/29 00:42:23;;;;;;;9.90;8.90;;;;;21.00;100465.00;;;;2075341;28;20217;-60
2022/03/29 00:43:24;;;;;;;9.37;8.47;;;;;21.00;100453.00;;;;2072224;28;20209;-59
2022/03/29 00:44:28;;;;;;;9.93;8.93;;;;;21.00;100467.00;;;;2070580;28;20206;-60
2022/03/29 00:45:30;;;;;;;10.38;8.90;;;;;21.00;100461.00;;;;2062212;28;20206;-61
2022/03/29 00:46:30;;;;;;;9.32;8.23;;;;;21.00;100457.00;;;;2065749;28;20717;-59
2022/03/29 00:47:31;;;;;;;10.37;8.87;;;;;21.00;100457.00;;;;2077152;28;20249;-59
2022/03/29 00:48:31;;;;;;;9.57;8.63;;;;;21.00;100456.00;;;;2074884;28;20255;-59
2022/03/29 00:49:32;;;;;;;9.30;7.90;;;;;21.00;100445.00;;;;2079312;28;20245;-59
2022/03/29 00:50:32;;;;;;;10.30;9.20;;;;;21.00;100457.00;;;;2079725;28;20218;-59
2022/03/29 00:51:33;;;;;;;9.30;8.33;;;;;21.00;100463.00;;;;2070797;28;20232;-59
2022/03/29 00:52:33;;;;;;;11.23;8.77;;;;;21.00;100464.00;;;;2071301;28;20218;-59
2022/03/29 00:53:34;;;;;;;10.53;9.53;;;;;21.00;100458.00;;;;2075025;28;20487;-59
2022/03/29 00:54:39;;;;;;;14.30;8.93;;;;;21.00;100466.00;;;;2068416;28;20229;-59
2022/03/29 00:55:39;;;;;;;9.77;8.57;;;;;21.00;100459.00;;;;2079145;28;20584;-58
2022/03/29 00:56:39;;;;;;;8.93;8.03;;;;;21.00;100456.00;;;;2060277;28;20222;-59
2022/03/29 00:57:40;;;;;;;9.20;8.30;;;;;21.00;100461.00;;;;2064623;28;20215;-59
2022/03/29 00:58:40;;;;;;;9.23;8.33;;;;;21.00;100453.00;;;;2077910;28;20209;-59
2022/03/29 00:59:42;;;;;;;9.90;8.60;;;;;21.00;100451.00;;;;2069952;28;20241;-59
2022/03/29 01:00:43;;;;;;;10.60;9.18;;;;;21.00;100454.00;;;;2070539;28;20637;-58
2022/03/29 01:01:44;;;;;;;10.20;8.97;;;;;21.00;100452.00;;;;2063509;28;20323;-58
2022/03/29 01:02:44;;;;;;;9.30;8.20;;;;;21.00;100451.00;;;;2070984;28;20271;-58
2022/03/29 01:03:45;;;;;;;9.80;8.87;;;;;21.00;100461.00;;;;2079021;28;20213;-58
2022/03/29 01:04:45;;;;;;;9.60;8.60;;;;;21.00;100457.00;;;;2079902;28;20263;-58
2022/03/29 01:05:46;;;;;;;10.10;9.10;;;;;21.00;100456.00;;;;2079193;28;20230;-58
2022/03/29 01:06:46;;;;;;;9.30;8.40;;;;;21.00;100458.00;;;;2079567;28;20669;-58
2022/03/29 01:07:46;;;;;;;10.30;8.83;;;;;21.00;100458.00;;;;2078879;28;20283;-58
2022/03/29 01:08:46;;;;;;;10.43;9.33;;;;;21.00;100455.00;;;;2071033;28;20753;-57
2022/03/29 01:09:47;;;;;;;10.93;9.77;;;;;21.00;100450.00;;;;2070811;28;20218;-58
2022/03/29 01:10:48;;;;;;;9.73;8.73;;;;;21.00;100451.00;;;;2077544;28;20229;-60
2022/03/29 01:11:49;;;;;;;10.40;9.32;;;;;21.00;100447.00;;;;2071938;28;20221;-56
2022/03/29 01:12:50;;;;;;;9.47;7.80;;;;;20.90;100449.00;;;;2071170;28;20729;-58
2022/03/29 01:13:50;;;;;;;10.50;9.40;;;;;20.90;100453.00;;;;2063163;28;20246;-47
2022/03/29 01:14:51;;;;;;;10.70;9.00;;;;;20.90;100450.00;;;;2078883;28;20217;-47
2022/03/29 01:15:52;;;;;;;10.50;8.73;;;;;20.90;100446.00;;;;2078943;28;20213;-47
2022/03/29 01:18:11;;;;;;;9.30;7.95;;;;;20.90;100444.00;;;;2078125;28;20217;-47
2022/03/29 01:19:12;;;;;;;8.83;7.57;;;;;20.90;100447.00;;;;2077198;28;20218;-47
2022/03/29 01:20:13;;;;;;;12.40;9.10;;;;;20.90;100446.00;;;;2074239;28;20213;-47
2022/03/29 01:21:15;;;;;;;9.57;8.10;;;;;21.00;100443.00;;;;2071673;28;20519;-47
2022/03/29 01:22:16;;;;;;;9.65;8.65;;;;;21.00;100440.00;;;;2063060;28;20218;-48
2022/03/29 01:23:16;;;;;;;10.20;8.20;;;;;21.00;100444.00;;;;2063089;28;20214;-47
2022/03/29 01:24:17;;;;;;;10.00;8.93;;;;;21.00;100440.00;;;;2067929;28;20221;-48
2022/03/29 01:25:23;;;;;;;9.00;8.10;;;;;21.00;100433.00;;;;2070942;28;20599;-48
2022/03/29 01:26:23;;;;;;;9.77;8.23;;;;;21.00;100436.00;;;;2078668;28;20209;-47
2022/03/29 01:27:23;;;;;;;9.50;8.50;;;;;20.90;100447.00;;;;2079567;28;20625;-48
2022/03/29 01:28:24;;;;;;;9.40;8.50;;;;;21.00;100441.00;;;;2076576;28;20677;-47
2022/03/29 01:29:24;;;;;;;11.20;8.40;;;;;21.00;100433.00;;;;2066961;28;20623;-47
2022/03/29 01:30:25;;;;;;;9.03;8.13;;;;;21.00;100440.00;;;;2071152;28;20317;-47
2022/03/29 01:31:25;;;;;;;9.40;8.50;;;;;21.00;100440.00;;;;2074862;28;20213;-47
2022/03/29 01:32:29;;;;;;;10.27;9.27;;;;;20.90;100438.00;;;;2070999;28;20218;-47
2022/03/29 01:33:30;;;;;;;9.07;8.27;;;;;21.00;100434.00;;;;2070946;28;20249;-47
2022/03/29 01:34:30;;;;;;;10.73;8.60;;;;;21.00;100433.00;;;;2071555;28;20222;-48
2022/03/29 01:35:30;;;;;;;10.50;8.97;;;;;20.90;100429.00;;;;2070128;28;20753;-48
2022/03/29 01:36:31;;;;;;;9.13;8.20;;;;;20.90;100423.00;;;;2079122;28;20636;-47
2022/03/29 01:37:31;;;;;;;9.10;7.80;;;;;21.00;100425.00;;;;2078938;28;20218;-47
2022/03/29 01:38:31;;;;;;;10.20;9.30;;;;;20.90;100416.00;;;;2072681;28;20214;-47
2022/03/29 01:39:33;;;;;;;9.47;8.43;;;;;20.90;100421.00;;;;2075230;28;20214;-47
2022/03/29 01:40:33;;;;;;;9.43;8.45;;;;;21.00;100418.00;;;;2069865;28;20222;-47
2022/03/29 01:41:33;;;;;;;10.30;9.30;;;;;20.90;100421.00;;;;2071505;28;20623;-47
2022/03/29 01:42:34;;;;;;;10.27;8.30;;;;;20.90;100427.00;;;;2071575;28;20646;-47
2022/03/29 01:43:34;;;;;;;9.57;8.27;;;;;20.90;100419.00;;;;2069992;28;20249;-48
2022/03/29 01:44:35;;;;;;;9.13;8.13;;;;;20.90;100421.00;;;;2070944;28;20210;-48
2022/03/29 01:45:35;;;;;;;9.13;8.23;;;;;20.90;100415.00;;;;2070935;28;20222;-48
2022/03/29 01:46:35;;;;;;;10.70;8.73;;;;;20.90;100415.00;;;;2074899;28;20751;-47
2022/03/29 01:47:36;;;;;;;9.90;8.90;;;;;20.90;100418.00;;;;2078984;28;20694;-47
2022/03/29 01:48:36;;;;;;;10.40;8.40;;;;;20.90;100423.00;;;;2079097;28;20217;-47
2022/03/29 01:49:37;;;;;;;10.80;8.63;;;;;20.90;100405.00;;;;2076060;28;20267;-47
2022/03/29 01:50:37;;;;;;;9.55;8.52;;;;;20.90;100420.00;;;;2062267;28;20663;-48
2022/03/29 01:51:38;;;;;;;8.80;7.90;;;;;20.90;100414.00;;;;2070141;28;20210;-48
2022/03/29 01:52:43;;;;;;;9.83;8.83;;;;;20.90;100413.00;;;;2070621;28;20218;-48
2022/03/29 01:53:46;;;;;;;10.50;9.35;;;;;20.90;100417.00;;;;2070532;28;20214;-48
2022/03/29 01:54:46;;;;;;;9.45;8.55;;;;;20.90;100414.00;;;;2078117;28;20205;-48
2022/03/29 01:55:47;;;;;;;9.93;8.90;;;;;20.90;100417.00;;;;2078264;28;20205;-48
2022/03/29 01:56:47;;;;;;;10.50;9.45;;;;;20.90;100424.00;;;;2079448;28;20202;-47
2022/03/29 01:57:48;;;;;;;9.53;8.63;;;;;20.90;100413.00;;;;2078304;28;20214;-48
2022/03/29 01:58:48;;;;;;;9.37;8.40;;;;;20.90;100414.00;;;;2072396;28;20233;-48
2022/03/29 02:01:08;;;;;;;9.73;8.63;;;;;20.90;100398.00;;;;2078823;28;20209;-48
2022/03/29 02:02:08;;;;;;;10.10;8.63;;;;;20.90;100396.00;;;;2079690;28;20213;-48
2022/03/29 02:03:09;;;;;;;10.53;9.43;;;;;20.90;100412.00;;;;2079735;28;20217;-48
2022/03/29 02:04:10;;;;;;;9.48;8.65;;;;;20.90;100412.00;;;;2079515;28;20221;-48
2022/03/29 02:05:10;;;;;;;10.57;9.47;;;;;20.90;100405.00;;;;2074673;28;20214;-48
2022/03/29 02:06:10;;;;;;;9.70;8.70;;;;;20.90;100410.00;;;;2070680;28;20709;-48
2022/03/29 02:07:11;;;;;;;9.40;8.50;;;;;20.90;100410.00;;;;2067845;28;20748;-47
2022/03/29 02:08:11;;;;;;;10.53;9.37;;;;;20.90;100398.00;;;;2071260;28;20210;-47
2022/03/29 02:09:12;;;;;;;9.73;8.73;;;;;20.90;100405.00;;;;2071479;28;20656;-47
2022/03/29 02:10:19;;;;;;;10.83;9.83;;;;;20.90;100398.00;;;;2072924;28;20761;-47
2022/03/29 02:11:19;;;;;;;9.48;8.48;;;;;20.90;100404.00;;;;2079480;28;20209;-47
2022/03/29 02:12:20;;;;;;;10.10;9.10;;;;;20.90;100403.00;;;;2078383;28;20237;-47
2022/03/29 02:13:21;;;;;;;10.70;9.60;;;;;20.80;100400.00;;;;2078962;28;20615;-47
2022/03/29 02:14:21;;;;;;;10.50;9.20;;;;;20.80;100397.00;;;;2079514;28;20490;-47
2022/03/29 02:15:21;;;;;;;10.70;9.60;;;;;20.90;100403.00;;;;2079183;28;20213;-47
2022/03/29 02:16:22;;;;;;;9.20;8.30;;;;;20.90;100399.00;;;;2079255;28;20213;-47
2022/03/29 02:17:22;;;;;;;10.03;8.63;;;;;20.80;100403.00;;;;2078881;28;20257;-47
2022/03/29 02:18:22;;;;;;;10.40;9.30;;;;;20.90;100399.00;;;;2079606;28;20256;-47
2022/03/29 02:19:23;;;;;;;10.53;9.37;;;;;20.80;100398.00;;;;2079440;28;20214;-47
2022/03/29 02:20:23;;;;;;;10.33;9.33;;;;;20.90;100400.00;;;;2078687;28;20217;-46
2022/03/29 02:21:24;;;;;;;11.07;8.40;;;;;20.80;100392.00;;;;2078716;28;20217;-47
2022/03/29 02:22:24;;;;;;;10.33;9.33;;;;;20.80;100397.00;;;;2079638;28;20237;-47
2022/03/29 02:23:24;;;;;;;9.80;8.80;;;;;20.80;100395.00;;;;2079544;28;20225;-47
2022/03/29 02:24:25;;;;;;;10.93;9.83;;;;;20.80;100394.00;;;;2079538;28;20339;-47
2022/03/29 02:25:25;;;;;;;10.63;9.60;;;;;20.80;100390.00;;;;2074301;28;20218;-47
2022/03/29 02:26:25;;;;;;;9.80;8.90;;;;;20.80;100390.00;;;;2076449;28;20217;-47
2022/03/29 02:27:26;;;;;;;9.80;8.80;;;;;20.80;100391.00;;;;2079139;28;21639;-47
2022/03/29 02:28:26;;;;;;;10.23;9.23;;;;;20.90;100393.00;;;;2079402;28;20220;-47
2022/03/29 02:29:26;;;;;;;10.47;9.47;;;;;20.80;100397.00;;;;2075020;28;20221;-47
2022/03/29 02:30:27;;;;;;;10.60;9.60;;;;;20.80;100389.00;;;;2076123;28;20229;-47
2022/03/29 02:31:27;;;;;;;11.57;10.27;;;;;20.80;100394.00;;;;2079316;28;20340;-47
2022/03/29 02:32:27;;;;;;;10.63;9.53;;;;;20.80;100390.00;;;;2079164;28;20267;-47
2022/03/29 02:33:28;;;;;;;10.60;9.60;;;;;20.80;100391.00;;;;2079297;28;20248;-47
2022/03/29 02:34:28;;;;;;;10.30;9.30;;;;;20.80;100392.00;;;;2078223;28;20216;-47
2022/03/29 02:35:28;;;;;;;10.03;9.03;;;;;20.80;100395.00;;;;2070695;28;20213;-47
2022/03/29 02:36:29;;;;;;;10.80;9.73;;;;;20.80;100390.00;;;;2071243;28;20252;-47
2022/03/29 02:37:29;;;;;;;10.40;9.40;;;;;20.80;100388.00;;;;2070832;28;20299;-47
2022/03/29 02:38:29;;;;;;;10.53;9.47;;;;;20.80;100382.00;;;;2072027;28;20218;-47
2022/03/29 02:39:30;;;;;;;11.30;10.20;;;;;20.80;100386.00;;;;2079379;28;20692;-48
2022/03/29 02:40:30;;;;;;;9.50;8.60;;;;;20.80;100380.00;;;;2078682;28;20214;-48
2022/03/29 02:41:30;;;;;;;10.60;9.50;;;;;20.80;100380.00;;;;2077929;28;20225;-48
2022/03/29 02:42:31;;;;;;;11.00;10.00;;;;;20.80;100382.00;;;;2079365;28;20293;-47
2022/03/29 02:43:31;;;;;;;11.17;10.07;;;;;20.80;100379.00;;;;2077822;28;20214;-48
2022/03/29 02:44:32;;;;;;;10.73;9.73;;;;;20.80;100380.00;;;;2070742;28;20256;-47
2022/03/29 02:45:33;;;;;;;10.80;9.70;;;;;20.80;100374.00;;;;2070492;28;20691;-47
2022/03/29 02:46:34;;;;;;;9.73;8.77;;;;;20.80;100372.00;;;;2071092;28;20308;-48
2022/03/29 02:47:34;;;;;;;10.80;9.70;;;;;20.80;100364.00;;;;2070878;28;20226;-47
2022/03/29 02:48:34;;;;;;;12.70;11.50;;;;;20.80;100370.00;;;;2070660;28;20532;-47
2022/03/29 02:49:35;;;;;;;11.03;9.93;;;;;20.80;100375.00;;;;2071260;28;20222;-47
2022/03/29 02:50:35;;;;;;;11.63;10.53;;;;;20.80;100365.00;;;;2070999;28;20230;-47
2022/03/29 02:51:36;;;;;;;12.17;10.60;;;;;20.80;100367.00;;;;2074625;28;20318;-47
2022/03/29 02:52:56;;;;;;;12.77;11.30;;;;;20.80;100365.00;;;;2071237;28;20357;-47
2022/03/29 02:53:56;;;;;;;10.98;9.95;;;;;20.80;100359.00;;;;2074610;28;20688;-47
2022/03/29 02:54:56;;;;;;;11.20;10.00;;;;;20.80;100357.00;;;;2074020;28;20237;-48
2022/03/29 02:55:57;;;;;;;10.77;9.77;;;;;20.80;100358.00;;;;2075091;28;20276;-47
2022/03/29 02:56:57;;;;;;;10.83;9.80;;;;;20.80;100351.00;;;;2071051;28;20268;-47
2022/03/29 02:57:58;;;;;;;11.60;10.40;;;;;20.80;100353.00;;;;2067055;28;20303;-47
2022/03/29 02:58:58;;;;;;;10.80;9.70;;;;;20.80;100353.00;;;;2076711;28;20777;-47
2022/03/29 02:59:58;;;;;;;10.47;9.47;;;;;20.80;100358.00;;;;2074311;28;20272;-47
2022/03/29 03:00:59;;;;;;;11.67;10.47;;;;;20.80;100359.00;;;;2074706;28;20215;-47
2022/03/29 03:01:59;;;;;;;11.83;10.63;;;;;20.80;100351.00;;;;2079458;28;20218;-47
2022/03/29 03:02:59;;;;;;;12.17;10.87;;;;;20.80;100351.00;;;;2079195;28;20685;-47
2022/03/29 03:04:00;;;;;;;11.80;10.60;;;;;20.80;100347.00;;;;2072050;28;20737;-47
2022/03/29 03:05:00;;;;;;;11.37;10.20;;;;;20.80;100341.00;;;;2074816;28;20974;-47
2022/03/29 03:06:01;;;;;;;10.80;9.70;;;;;20.80;100343.00;;;;2072327;28;20729;-47
2022/03/29 03:07:01;;;;;;;11.20;10.20;;;;;20.70;100342.00;;;;2076543;28;20259;-47
2022/03/29 03:08:02;;;;;;;11.57;10.47;;;;;20.80;100341.00;;;;2075100;28;24675;-47
2022/03/29 03:09:02;;;;;;;12.37;11.17;;;;;20.80;100345.00;;;;2074789;28;20231;-47
2022/03/29 03:10:04;;;;;;;10.93;9.83;;;;;20.80;100343.00;;;;2071613;28;20273;-47
2022/03/29 03:11:04;;;;;;;11.82;10.68;;;;;20.80;100345.00;;;;2077476;28;20244;-47
2022/03/29 03:12:05;;;;;;;11.47;10.43;;;;;20.80;100338.00;;;;2078671;28;20218;-47
2022/03/29 03:13:05;;;;;;;12.30;11.10;;;;;20.50;100346.00;;;;2077904;28;20233;-47
2022/03/29 03:14:05;;;;;;;10.77;9.73;;;;;20.70;100342.00;;;;2078820;28;20245;-47
2022/03/29 03:15:07;;;;;;;11.47;10.40;;;;;20.80;100343.00;;;;2078728;28;20218;-47
2022/03/29 03:16:08;;;;;;;11.90;10.70;;;;;20.80;100347.00;;;;2077835;28;20229;-47
2022/03/29 03:17:08;;;;;;;11.68;10.48;;;;;20.80;100339.00;;;;2077485;28;20279;-47
2022/03/29 03:18:09;;;;;;;11.70;10.60;;;;;20.70;100346.00;;;;2077601;28;20610;-47
2022/03/29 03:19:10;;;;;;;12.57;11.37;;;;;20.70;100341.00;;;;2078637;28;20993;-47
2022/03/29 03:20:11;;;;;;;12.53;11.30;;;;;20.70;100336.00;;;;2078640;28;20487;-48
2022/03/29 03:21:11;;;;;;;12.20;11.10;;;;;20.70;100336.00;;;;2078582;28;20288;-47
2022/03/29 03:22:11;;;;;;;11.37;10.27;;;;;20.70;100359.00;;;;2077198;28;20214;-47
2022/03/29 03:23:12;;;;;;;11.53;10.43;;;;;20.70;100336.00;;;;2078990;28;20217;-47
2022/03/29 03:24:13;;;;;;;11.50;10.27;;;;;20.70;100335.00;;;;2078698;28;20842;-47
2022/03/29 03:25:13;;;;;;;11.10;10.00;;;;;20.70;100354.00;;;;2078797;28;20304;-47
2022/03/29 03:26:14;;;;;;;12.07;10.90;;;;;20.70;100337.00;;;;2078373;28;20228;-47
2022/03/29 03:27:16;;;;;;;12.97;11.67;;;;;20.70;100335.00;;;;2077997;28;20271;-47
2022/03/29 03:28:16;;;;;;;12.48;11.30;;;;;20.70;100336.00;;;;2078668;28;20525;-48
2022/03/29 03:29:16;;;;;;;11.87;10.77;;;;;20.70;100334.00;;;;2078416;28;20244;-48
2022/03/29 03:30:17;;;;;;;11.80;10.70;;;;;20.70;100333.00;;;;2078656;28;20214;-48
2022/03/29 03:31:17;;;;;;;11.13;10.07;;;;;20.70;100341.00;;;;2079105;28;20217;-47
2022/03/29 03:32:18;;;;;;;12.97;11.57;;;;;20.70;100330.00;;;;2078962;28;20213;-48
2022/03/29 03:33:18;;;;;;;11.87;10.67;;;;;20.70;100337.00;;;;2079206;28;20328;-49
2022/03/29 03:34:18;;;;;;;12.10;10.90;;;;;20.70;100337.00;;;;2079044;28;20237;-47
2022/03/29 03:35:19;;;;;;;12.57;11.33;;;;;20.70;100332.00;;;;2078669;28;20213;-47
2022/03/29 03:36:19;;;;;;;12.00;10.87;;;;;20.70;100331.00;;;;2079077;28;20213;-48
2022/03/29 03:37:19;;;;;;;11.93;10.83;;;;;20.70;100334.00;;;;2079120;28;20797;-48
2022/03/29 03:38:20;;;;;;;12.77;11.47;;;;;20.70;100324.00;;;;2079054;28;20228;-48
2022/03/29 03:39:20;;;;;;;13.27;11.90;;;;;20.70;100330.00;;;;2078442;28;20226;-47
2022/03/29 03:40:20;;;;;;;14.20;12.80;;;;;20.70;100330.00;;;;2079091;28;20210;-48
2022/03/29 03:41:21;;;;;;;12.67;11.47;;;;;20.70;100333.00;;;;2078689;28;20251;-48
2022/03/29 03:42:21;;;;;;;12.50;11.30;;;;;20.70;100323.00;;;;2078064;28;20217;-47
2022/03/29 03:43:22;;;;;;;13.57;12.23;;;;;20.70;100331.00;;;;2078910;28;20217;-48
2022/03/29 03:44:22;;;;;;;13.07;11.87;;;;;20.70;100325.00;;;;2072977;28;20229;-48
2022/03/29 03:45:23;;;;;;;12.53;11.37;;;;;20.70;100319.00;;;;2069941;28;20268;-47
2022/03/29 03:46:23;;;;;;;12.50;11.40;;;;;20.70;100319.00;;;;2070778;28;20222;-47
2022/03/29 03:47:27;;;;;;;13.17;11.70;;;;;20.70;100318.00;;;;2069855;28;20221;-48
2022/03/29 03:48:27;;;;;;;12.50;11.30;;;;;20.70;100321.00;;;;2069898;28;20284;-48
2022/03/29 03:49:28;;;;;;;13.90;12.60;;;;;20.70;100321.00;;;;2070652;28;20210;-47
2022/03/29 03:50:28;;;;;;;13.10;11.90;;;;;20.70;100322.00;;;;2078534;28;20693;-47
2022/03/29 03:51:28;;;;;;;13.03;11.83;;;;;20.70;100324.00;;;;2078692;28;20197;-47
2022/03/29 03:52:29;;;;;;;12.80;11.60;;;;;20.70;100321.00;;;;2078842;28;20209;-47
2022/03/29 03:53:30;;;;;;;12.13;11.03;;;;;20.70;100320.00;;;;2078568;28;20551;-47
2022/03/29 03:54:32;;;;;;;13.02;11.73;;;;;20.70;100311.00;;;;2078519;28;20228;-47
2022/03/29 03:55:33;;;;;;;12.85;11.63;;;;;20.70;100314.00;;;;2078225;28;20233;-47
2022/03/29 03:56:33;;;;;;;14.00;12.60;;;;;20.70;100314.00;;;;2078714;28;20282;-47
2022/03/29 03:57:33;;;;;;;13.20;11.90;;;;;20.70;100314.00;;;;2078710;28;20209;-47
2022/03/29 03:58:34;;;;;;;13.43;12.13;;;;;20.70;100316.00;;;;2078862;28;20217;-47
2022/03/29 03:59:34;;;;;;;14.00;12.70;;;;;20.70;100317.00;;;;2078645;28;20712;-47
2022/03/29 04:00:34;;;;;;;13.33;11.97;;;;;20.70;100308.00;;;;2078648;28;20202;-47
2022/03/29 04:01:35;;;;;;;12.20;11.00;;;;;20.70;100307.00;;;;2078989;28;20686;-47
2022/03/29 04:02:35;;;;;;;12.67;11.53;;;;;20.70;100312.00;;;;2078796;28;20270;-47
2022/03/29 04:03:35;;;;;;;12.97;11.77;;;;;20.70;100304.00;;;;2078108;28;20267;-47
2022/03/29 04:04:36;;;;;;;13.60;12.30;;;;;20.70;100309.00;;;;2076838;28;20217;-47
2022/03/29 04:05:36;;;;;;;14.53;12.80;;;;;20.70;100306.00;;;;2070021;28;20229;-47
2022/03/29 04:06:37;;;;;;;13.03;11.77;;;;;20.70;100298.00;;;;2074232;28;20293;-47
2022/03/29 04:07:38;;;;;;;13.13;12.00;;;;;20.70;100296.00;;;;2078607;28;20708;-47
2022/03/29 04:08:39;;;;;;;12.43;11.30;;;;;20.70;100298.00;;;;2078329;28;20452;-47
2022/03/29 04:09:39;;;;;;;13.47;12.07;;;;;20.70;100294.00;;;;2078563;28;20244;-47
2022/03/29 04:10:40;;;;;;;13.30;12.10;;;;;20.70;100298.00;;;;2078545;28;20217;-47
2022/03/29 04:11:40;;;;;;;14.77;12.80;;;;;20.70;100293.00;;;;2078323;28;20291;-47
2022/03/29 04:12:41;;;;;;;13.30;11.93;;;;;20.70;100224.00;;;;2078030;28;20568;-47
2022/03/29 04:13:41;;;;;;;13.53;12.20;;;;;20.70;100288.00;;;;2078630;28;20585;-48
2022/03/29 04:14:42;;;;;;;14.77;13.27;;;;;20.70;100289.00;;;;2078839;28;20624;-47
2022/03/29 04:15:43;;;;;;;13.52;12.32;;;;;20.70;100289.00;;;;2078067;28;20221;-47
2022/03/29 04:16:43;;;;;;;14.17;12.77;;;;;20.70;100287.00;;;;2073485;28;20234;-47
2022/03/29 04:17:43;;;;;;;14.57;13.17;;;;;20.70;100279.00;;;;2070723;28;20250;-47
2022/03/29 04:18:44;;;;;;;14.60;13.07;;;;;20.60;100280.00;;;;2076971;28;20581;-48
2022/03/29 04:19:44;;;;;;;13.77;12.37;;;;;20.60;100284.00;;;;2077492;28;20731;-47
2022/03/29 04:20:44;;;;;;;13.00;11.80;;;;;20.60;100285.00;;;;2078663;28;20290;-47
2022/03/29 04:21:45;;;;;;;14.47;13.07;;;;;20.60;100285.00;;;;2078751;28;20221;-47
2022/03/29 04:22:45;;;;;;;15.00;13.60;;;;;20.60;100288.00;;;;2078472;28;20225;-48
2022/03/29 04:23:45;;;;;;;15.47;14.07;;;;;20.60;100287.00;;;;2078358;28;20213;-47
2022/03/29 04:24:46;;;;;;;13.27;11.97;;;;;20.60;100288.00;;;;2071499;28;20297;-47
2022/03/29 04:25:46;;;;;;;14.77;13.27;;;;;20.60;100279.00;;;;2076142;28;20213;-47
2022/03/29 04:26:48;;;;;;;14.20;12.80;;;;;20.60;100282.00;;;;2070726;28;20312;-47
2022/03/29 04:27:48;;;;;;;14.85;13.27;;;;;20.60;100284.00;;;;2069695;28;20218;-47
2022/03/29 04:28:49;;;;;;;16.03;14.43;;;;;20.70;100281.00;;;;2069817;28;20232;-47
2022/03/29 04:29:49;;;;;;;13.43;12.10;;;;;20.70;100276.00;;;;2070340;28;20230;-47
2022/03/29 04:30:50;;;;;;;12.57;11.47;;;;;20.70;100283.00;;;;2070499;28;20218;-47
2022/03/29 04:31:52;;;;;;;13.63;12.32;;;;;20.70;100281.00;;;;2070133;28;20218;-47
2022/03/29 04:32:53;;;;;;;13.60;12.30;;;;;20.70;100275.00;;;;2070476;28;20218;-47
2022/03/29 04:33:54;;;;;;;14.05;12.65;;;;;20.70;100270.00;;;;2070588;28;20214;-47
2022/03/29 04:34:54;;;;;;;14.60;13.30;;;;;20.70;100278.00;;;;2070185;28;20656;-53
2022/03/29 04:35:54;;;;;;;14.00;12.70;;;;;20.70;100278.00;;;;2069778;28;20234;-52
2022/03/29 04:36:58;;;;;;;13.97;12.60;;;;;20.70;100275.00;;;;2069622;28;20212;-49
2022/03/29 04:37:59;;;;;;;14.27;12.85;;;;;20.70;100278.00;;;;2069653;28;20218;-47
2022/03/29 04:38:59;;;;;;;12.17;11.07;;;;;20.70;100278.00;;;;2070430;28;20690;-47
2022/03/29 04:39:59;;;;;;;13.13;11.93;;;;;20.70;100277.00;;;;2070144;28;20907;-47
2022/03/29 04:41:00;;;;;;;14.13;12.83;;;;;20.70;100276.00;;;;2070457;28;20214;-47
2022/03/29 04:42:00;;;;;;;14.33;13.03;;;;;20.80;100272.00;;;;2070334;28;20218;-48
2022/03/29 04:43:00;;;;;;;17.53;15.73;;;;;20.70;100272.00;;;;2069980;28;20264;-47
2022/03/29 04:44:01;;;;;;;18.27;15.90;;;;;20.60;100270.00;;;;2073025;28;20312;-47
2022/03/29 04:45:01;;;;;;;17.50;15.87;;;;;20.60;100270.00;;;;2069333;28;20624;-48
2022/03/29 04:46:02;;;;;;;18.63;16.73;;;;;20.60;100265.00;;;;2071090;28;20276;-48
2022/03/29 04:47:04;;;;;;;19.03;17.23;;;;;20.60;100266.00;;;;2078031;28;20263;-48
2022/03/29 04:48:04;;;;;;;19.30;17.40;;;;;20.60;100277.00;;;;2078140;28;20267;-47
2022/03/29 04:49:05;;;;;;;19.73;17.83;;;;;20.60;100267.00;;;;2077049;28;20779;-47
2022/03/29 04:50:07;;;;;;;19.60;17.63;;;;;20.50;100265.00;;;;2069580;28;20472;-47
2022/03/29 04:51:07;;;;;;;18.73;16.83;;;;;20.50;100264.00;;;;2069784;28;20218;-47
2022/03/29 04:52:10;;;;;;;19.10;17.30;;;;;20.50;100273.00;;;;2069864;28;20253;-47
2022/03/29 04:53:10;;;;;;;19.08;17.08;;;;;20.50;100270.00;;;;2069970;28;20306;-47
2022/03/29 04:54:10;;;;;;;19.23;17.40;;;;;20.50;100267.00;;;;2068880;28;20619;-47
2022/03/29 04:55:12;;;;;;;19.27;17.40;;;;;20.50;100267.00;;;;2073270;28;20217;-47
2022/03/29 04:56:12;;;;;;;17.73;16.00;;;;;20.50;100270.00;;;;2075807;28;20217;-48
2022/03/29 04:57:13;;;;;;;18.50;16.60;;;;;20.50;100267.00;;;;2076249;28;20300;-47
2022/03/29 04:58:13;;;;;;;18.50;16.70;;;;;20.50;100261.00;;;;2078449;28;20241;-47
2022/03/29 04:59:14;;;;;;;17.93;16.13;;;;;20.50;100259.00;;;;2078381;28;20217;-47